Time;durP1;ratioP1;P1;durP2;ratioP2;P2;SDS_P1;SDS_P2;PMS_P1;PMS_P2;Temp;Humidity;BMP_temperature;BMP_pressure;BME280_temperature;BME280_humidity;BME280_pressure;Samples;Min_cycle;Max_cycle;Signal;HPM_P1;HPM_P2
2021/06/10 00:01:46;;;;;;;;;;;14.00;99.90;;;;;;8361902;28;19947;-66
2021/06/10 00:05:48;;;;;;;;;;;13.90;99.90;;;;;;8362672;28;19936;-66
2021/06/10 00:09:49;;;;;;;;;;;13.90;99.90;;;;;;8362428;28;19916;-66
2021/06/10 00:13:49;;;;;;;;;;;13.80;99.90;;;;;;8344412;28;19909;-66
2021/06/10 00:17:50;;;;;;;;;;;13.80;99.90;;;;;;8361810;28;19962;-66
2021/06/10 00:21:50;;;;;;;;;;;14.10;99.90;;;;;;8362192;28;19950;-66
2021/06/10 00:25:51;;;;;;;;;;;13.90;99.90;;;;;;8359244;28;19978;-66
2021/06/10 00:29:52;;;;;;;;;;;13.70;99.90;;;;;;8361956;28;20051;-66
2021/06/10 00:33:52;;;;;;;;;;;13.70;99.90;;;;;;8361838;28;19913;-66
2021/06/10 00:37:57;;;;;;;;;;;13.60;99.90;;;;;;8343649;28;19920;-66
2021/06/10 00:41:58;;;;;;;;;;;13.60;99.90;;;;;;8361994;28;19917;-66
2021/06/10 00:45:58;;;;;;;;;;;13.40;99.90;;;;;;8361519;28;19981;-66
2021/06/10 00:49:59;;;;;;;;;;;13.50;99.90;;;;;;8362101;28;19955;-66
2021/06/10 00:54:00;;;;;;;;;;;13.80;99.90;;;;;;8361503;28;20610;-66
2021/06/10 00:58:00;;;;;;;;;;;13.60;99.90;;;;;;8360917;28;19909;-66
2021/06/10 01:02:01;;;;;;;;;;;13.90;99.90;;;;;;8361491;28;19909;-66
2021/06/10 01:06:20;;;;;;;;;;;13.50;99.90;;;;;;8361261;28;19917;-66
2021/06/10 01:10:26;;;;;;;;;;;13.40;99.90;;;;;;8361248;28;19919;-66
2021/06/10 01:14:34;;;;;;;;;;;13.30;99.90;;;;;;8342025;28;19913;-65
2021/06/10 01:18:36;;;;;;;;;;;13.30;99.90;;;;;;8342630;28;19909;-66
2021/06/10 01:22:42;;;;;;;;;;;13.30;99.90;;;;;;8360956;28;19959;-67
2021/06/10 01:26:49;;;;;;;;;;;13.20;99.90;;;;;;8360201;28;20402;-66
2021/06/10 01:30:55;;;;;;;;;;;13.00;99.90;;;;;;8360935;28;19915;-65
2021/06/10 01:34:55;;;;;;;;;;;12.90;99.90;;;;;;8360503;28;19932;-65
2021/06/10 01:38:58;;;;;;;;;;;13.10;99.90;;;;;;8359867;28;19967;-66
2021/06/10 01:42:59;;;;;;;;;;;13.10;99.90;;;;;;8342621;28;20420;-66
2021/06/10 01:46:59;;;;;;;;;;;12.90;99.90;;;;;;8359721;28;19970;-66
2021/06/10 01:51:02;;;;;;;;;;;12.70;99.90;;;;;;8360300;28;20280;-66
2021/06/10 01:55:05;;;;;;;;;;;12.60;99.90;;;;;;8360385;28;19909;-66
2021/06/10 01:59:07;;;;;;;;;;;12.60;99.90;;;;;;8359599;28;19909;-66
2021/06/10 02:03:08;;;;;;;;;;;12.60;99.90;;;;;;8358998;28;19909;-66
2021/06/10 02:07:09;;;;;;;;;;;12.60;99.90;;;;;;8361185;22;19970;-63
2021/06/10 02:11:10;;;;;;;;;;;12.50;99.90;;;;;;8324825;28;20382;-64
2021/06/10 02:15:11;;;;;;;;;;;12.40;99.90;;;;;;8326573;28;19915;-64
2021/06/10 02:19:13;;;;;;;;;;;12.60;99.90;;;;;;8324503;28;19939;-64
2021/06/10 02:23:14;;;;;;;;;;;12.70;99.90;;;;;;8325776;28;19989;-64
2021/06/10 02:27:14;;;;;;;;;;;12.50;99.90;;;;;;8331989;28;20001;-64
2021/06/10 02:31:15;;;;;;;;;;;12.40;99.90;;;;;;8332950;28;19909;-64
2021/06/10 02:35:16;;;;;;;;;;;12.50;99.90;;;;;;8354375;28;20308;-63
2021/06/10 02:39:17;;;;;;;;;;;12.40;99.90;;;;;;8364947;28;20002;-64
2021/06/10 02:43:17;;;;;;;;;;;12.30;99.90;;;;;;8365019;28;19912;-63
2021/06/10 02:47:20;;;;;;;;;;;12.40;99.90;;;;;;8365036;28;19916;-64
2021/06/10 02:51:21;;;;;;;;;;;12.60;99.90;;;;;;8365217;28;19909;-63
2021/06/10 02:55:22;;;;;;;;;;;12.40;99.90;;;;;;8337370;28;19916;-64
2021/06/10 02:59:23;;;;;;;;;;;12.30;99.90;;;;;;8331500;28;19909;-64
2021/06/10 03:03:24;;;;;;;;;;;12.60;99.90;;;;;;8339002;28;19912;-64
2021/06/10 03:07:25;;;;;;;;;;;12.50;99.90;;;;;;8362689;28;19932;-64
2021/06/10 03:11:25;;;;;;;;;;;12.30;99.90;;;;;;8364592;28;19912;-63
2021/06/10 03:15:26;;;;;;;;;;;12.10;99.90;;;;;;8363091;28;20034;-64
2021/06/10 03:19:27;;;;;;;;;;;12.00;99.90;;;;;;8363651;28;20023;-64
2021/06/10 03:23:28;;;;;;;;;;;12.20;99.90;;;;;;8350544;28;19921;-64
2021/06/10 03:27:30;;;;;;;;;;;12.20;99.90;;;;;;8330817;28;19913;-64
2021/06/10 03:31:30;;;;;;;;;;;12.40;99.90;;;;;;8318940;28;20288;-63
2021/06/10 03:35:32;;;;;;;;;;;12.20;99.90;;;;;;8346693;28;19952;-63
2021/06/10 03:39:34;;;;;;;;;;;12.00;99.90;;;;;;8362902;28;19919;-64
2021/06/10 03:43:36;;;;;;;;;;;12.10;99.90;;;;;;8327452;28;20023;-64
2021/06/10 03:47:37;;;;;;;;;;;12.00;99.90;;;;;;8314485;28;19924;-63
2021/06/10 03:51:38;;;;;;;;;;;12.00;99.90;;;;;;8296984;28;20000;-64
2021/06/10 03:55:39;;;;;;;;;;;12.20;99.90;;;;;;8314466;28;19913;-63
2021/06/10 03:59:40;;;;;;;;;;;12.30;99.90;;;;;;8325489;28;20379;-63
2021/06/10 04:03:40;;;;;;;;;;;12.30;99.90;;;;;;8338970;28;19963;-64
2021/06/10 04:07:41;;;;;;;;;;;12.50;99.90;;;;;;8343332;28;19954;-64
2021/06/10 04:11:41;;;;;;;;;;;12.60;99.90;;;;;;8326545;28;19917;-64
2021/06/10 04:15:42;;;;;;;;;;;12.70;99.90;;;;;;8329021;28;19946;-64
2021/06/10 04:19:43;;;;;;;;;;;13.10;99.90;;;;;;8325621;28;19913;-64
2021/06/10 04:23:44;;;;;;;;;;;13.20;99.90;;;;;;8328255;28;20008;-63
2021/06/10 04:27:44;;;;;;;;;;;13.60;99.90;;;;;;8309248;28;19914;-63
2021/06/10 04:31:45;;;;;;;;;;;13.80;99.90;;;;;;8326818;28;19917;-64
2021/06/10 04:35:45;;;;;;;;;;;13.90;99.90;;;;;;8355830;28;19916;-63
2021/06/10 04:39:45;;;;;;;;;;;14.00;99.90;;;;;;8333563;28;19943;-63
2021/06/10 04:43:46;;;;;;;;;;;14.10;99.90;;;;;;8305085;28;19924;-63
2021/06/10 04:47:46;;;;;;;;;;;14.40;99.90;;;;;;8307883;28;19960;-61
2021/06/10 04:51:47;;;;;;;;;;;14.60;99.90;;;;;;8303318;28;19924;-60
2021/06/10 04:55:47;;;;;;;;;;;15.00;99.90;;;;;;8325513;28;19963;-61
2021/06/10 04:59:48;;;;;;;;;;;15.20;99.90;;;;;;8309409;28;19963;-61
2021/06/10 05:03:49;;;;;;;;;;;15.50;99.90;;;;;;8318081;28;19958;-61
2021/06/10 05:07:49;;;;;;;;;;;15.70;99.90;;;;;;8335303;28;19967;-61
2021/06/10 05:11:49;;;;;;;;;;;15.70;99.90;;;;;;8327136;28;19913;-61
2021/06/10 05:15:50;;;;;;;;;;;16.00;99.90;;;;;;8301554;28;19917;-61
2021/06/10 05:19:50;;;;;;;;;;;16.20;99.90;;;;;;8323976;28;20283;-62
2021/06/10 05:23:51;;;;;;;;;;;16.50;99.90;;;;;;8326336;28;19913;-61
2021/06/10 05:27:51;;;;;;;;;;;16.60;99.90;;;;;;8313511;28;19914;-61
2021/06/10 05:31:52;;;;;;;;;;;16.80;99.90;;;;;;8309995;28;19917;-61
2021/06/10 05:35:52;;;;;;;;;;;17.10;99.90;;;;;;8325236;28;19909;-60
2021/06/10 05:39:53;;;;;;;;;;;17.20;99.90;;;;;;8325447;28;19935;-61
2021/06/10 05:43:53;;;;;;;;;;;17.30;99.90;;;;;;8320526;28;19921;-61
2021/06/10 05:47:54;;;;;;;;;;;17.40;99.90;;;;;;8355217;28;20391;-61
2021/06/10 05:51:54;;;;;;;;;;;17.60;99.90;;;;;;8358714;28;19909;-61
2021/06/10 05:55:55;;;;;;;;;;;17.50;99.90;;;;;;8317268;28;20295;-60
2021/06/10 05:59:55;;;;;;;;;;;17.70;99.90;;;;;;8302737;28;19920;-61
2021/06/10 06:03:56;;;;;;;;;;;17.80;99.90;;;;;;8303754;28;19917;-61
2021/06/10 06:07:56;;;;;;;;;;;17.80;99.90;;;;;;8310804;28;19964;-61
2021/06/10 06:11:57;;;;;;;;;;;17.90;99.90;;;;;;8324170;28;20330;-61
2021/06/10 06:16:01;;;;;;;;;;;18.10;99.90;;;;;;8314385;28;20414;-61
2021/06/10 06:20:02;;;;;;;;;;;18.50;99.90;;;;;;8305434;28;20011;-61
2021/06/10 06:24:03;;;;;;;;;;;18.60;99.90;;;;;;8307241;28;19917;-61
2021/06/10 06:28:04;;;;;;;;;;;18.60;99.90;;;;;;8301573;28;20356;-62
2021/06/10 06:32:05;;;;;;;;;;;18.60;99.90;;;;;;8292486;28;19920;-61
2021/06/10 06:36:06;;;;;;;;;;;18.70;99.90;;;;;;8351946;28;19909;-61
2021/06/10 06:40:08;;;;;;;;;;;18.70;99.90;;;;;;8343040;28;20426;-62
2021/06/10 06:44:08;;;;;;;;;;;18.60;99.90;;;;;;8292312;28;19932;-62
2021/06/10 06:48:09;;;;;;;;;;;18.50;99.90;;;;;;8292052;28;19917;-62
2021/06/10 06:52:10;;;;;;;;;;;18.50;99.90;;;;;;8293263;28;19914;-61
2021/06/10 06:56:10;;;;;;;;;;;18.70;99.90;;;;;;8324664;28;19916;-61
2021/06/10 07:00:11;;;;;;;;;;;18.90;99.90;;;;;;8298686;28;20295;-62
2021/06/10 07:04:11;;;;;;;;;;;19.20;99.90;;;;;;8308930;28;20502;-62
2021/06/10 07:08:12;;;;;;;;;;;19.50;99.90;;;;;;8294145;28;19921;-62
2021/06/10 07:12:12;;;;;;;;;;;19.60;99.90;;;;;;8309284;28;20268;-62
2021/06/10 07:16:13;;;;;;;;;;;19.80;99.90;;;;;;8314715;28;20024;-61
2021/06/10 07:20:14;;;;;;;;;;;19.80;99.90;;;;;;8318938;28;20027;-62
2021/06/10 07:24:14;;;;;;;;;;;19.90;99.90;;;;;;8312897;28;19920;-61
2021/06/10 07:28:15;;;;;;;;;;;19.80;99.90;;;;;;8326191;28;19932;-61
2021/06/10 07:32:15;;;;;;;;;;;20.10;99.90;;;;;;8326927;28;20375;-62
2021/06/10 07:36:16;;;;;;;;;;;20.10;99.90;;;;;;8345918;28;19984;-62
2021/06/10 07:40:17;;;;;;;;;;;20.00;99.90;;;;;;8309021;28;19914;-61
2021/06/10 07:44:17;;;;;;;;;;;20.00;99.90;;;;;;8312473;28;20384;-61
2021/06/10 07:48:18;;;;;;;;;;;19.70;99.90;;;;;;8312680;28;19913;-62
2021/06/10 07:52:18;;;;;;;;;;;19.50;99.90;;;;;;8313424;28;19917;-62
2021/06/10 07:56:18;;;;;;;;;;;19.40;99.90;;;;;;8315259;28;20086;-62
2021/06/10 08:00:19;;;;;;;;;;;19.40;99.90;;;;;;8320224;28;20505;-61
2021/06/10 08:04:20;;;;;;;;;;;19.60;99.90;;;;;;8316300;28;20286;-62
2021/06/10 08:08:21;;;;;;;;;;;20.00;99.90;;;;;;8388032;22;19931;-66
2021/06/10 08:12:22;;;;;;;;;;;20.80;99.90;;;;;;8393694;28;19916;-66
2021/06/10 08:16:23;;;;;;;;;;;21.30;99.90;;;;;;8394025;28;20325;-65
2021/06/10 08:20:25;;;;;;;;;;;21.10;99.90;;;;;;8393968;28;19954;-67
2021/06/10 08:24:25;;;;;;;;;;;21.00;99.90;;;;;;8392574;28;19931;-65
2021/06/10 08:28:28;;;;;;;;;;;20.80;99.90;;;;;;8391564;28;19979;-66
2021/06/10 08:32:29;;;;;;;;;;;21.10;99.90;;;;;;8392456;28;19917;-67
2021/06/10 08:36:29;;;;;;;;;;;21.50;99.90;;;;;;8378646;28;19920;-65
2021/06/10 08:40:30;;;;;;;;;;;21.90;99.90;;;;;;8393656;28;19909;-66
2021/06/10 08:48:43;;;;;;;;;;;22.30;99.90;;;;;;8537767;22;19924;-62
2021/06/10 08:52:44;;;;;;;;;;;22.50;99.90;;;;;;8347270;28;20412;-62
2021/06/10 08:56:46;;;;;;;;;;;22.90;99.90;;;;;;8357528;28;19944;-62
2021/06/10 09:00:46;;;;;;;;;;;22.70;99.90;;;;;;8358943;28;19931;-62
2021/06/10 09:04:47;;;;;;;;;;;23.00;99.90;;;;;;8358861;28;19916;-61
2021/06/10 09:08:55;;;;;;;;;;;23.50;99.90;;;;;;8358988;28;20286;-61
2021/06/10 09:12:57;;;;;;;;;;;23.40;99.90;;;;;;8358804;28;19917;-62
2021/06/10 09:16:58;;;;;;;;;;;23.00;99.90;;;;;;8356273;28;19955;-62
2021/06/10 09:20:58;;;;;;;;;;;22.80;99.90;;;;;;8358407;28;20309;-61
2021/06/10 09:25:09;;;;;;;;;;;22.50;99.90;;;;;;8359026;28;19949;-62
2021/06/10 09:29:09;;;;;;;;;;;22.70;99.90;;;;;;8358329;28;19913;-62
2021/06/10 09:33:11;;;;;;;;;;;23.20;99.90;;;;;;8358360;28;19916;-61
2021/06/10 09:37:12;;;;;;;;;;;23.50;99.90;;;;;;8357313;28;19976;-62
2021/06/10 09:41:13;;;;;;;;;;;23.50;99.90;;;;;;8358619;28;20339;-62
2021/06/10 09:45:14;;;;;;;;;;;23.50;99.90;;;;;;8358329;28;19912;-61
2021/06/10 09:49:15;;;;;;;;;;;23.30;99.90;;;;;;8358428;28;19963;-61
2021/06/10 09:53:18;;;;;;;;;;;23.70;99.90;;;;;;8357467;28;20447;-62
2021/06/10 09:57:19;;;;;;;;;;;24.00;99.90;;;;;;8357171;28;19913;-61
2021/06/10 10:01:20;;;;;;;;;;;24.10;99.90;;;;;;8356211;28;19913;-62
2021/06/10 10:05:22;;;;;;;;;;;24.00;99.90;;;;;;8357124;28;19917;-62
2021/06/10 10:09:26;;;;;;;;;;;24.30;99.90;;;;;;8357257;28;19909;-61
2021/06/10 10:13:27;;;;;;;;;;;24.60;99.90;;;;;;8355878;28;19947;-62
2021/06/10 10:17:28;;;;;;;;;;;24.90;99.90;;;;;;8338426;28;20013;-63
2021/06/10 10:21:30;;;;;;;;;;;24.60;99.90;;;;;;8349652;28;19956;-65
2021/06/10 10:25:30;;;;;;;;;;;23.90;99.90;;;;;;8340148;28;20382;-65
2021/06/10 10:29:31;;;;;;;;;;;23.70;99.90;;;;;;8357934;28;19908;-65
2021/06/10 10:33:41;;;;;;;;;;;23.90;99.90;;;;;;8349830;28;20081;-66
2021/06/10 10:37:42;;;;;;;;;;;24.60;99.90;;;;;;8348983;28;19921;-65
2021/06/10 10:41:49;;;;;;;;;;;24.60;99.90;;;;;;8355349;28;19920;-65
2021/06/10 10:46:04;;;;;;;;;;;25.30;99.90;;;;;;8356746;28;19971;-65
2021/06/10 10:50:04;;;;;;;;;;;26.10;99.90;;;;;;8346672;28;20188;-66
2021/06/10 10:54:25;;;;;;;;;;;25.70;99.90;;;;;;8360090;28;20157;-65
2021/06/10 10:58:25;;;;;;;;;;;25.30;99.90;;;;;;8343905;28;20015;-65
2021/06/10 11:02:27;;;;;;;;;;;25.00;99.90;;;;;;8363557;28;20390;-66
2021/06/10 11:06:28;;;;;;;;;;;25.30;99.90;;;;;;8361614;28;19917;-65
2021/06/10 11:10:39;;;;;;;;;;;25.90;99.90;;;;;;8362345;28;20344;-65
2021/06/10 11:14:51;;;;;;;;;;;27.20;99.90;;;;;;8344497;28;19920;-64
2021/06/10 11:18:52;;;;;;;;;;;28.30;99.90;;;;;;8362306;28;20402;-65
2021/06/10 11:23:08;;;;;;;;;;;27.50;99.90;;;;;;8358055;28;19913;-64
2021/06/10 11:27:09;;;;;;;;;;;28.20;99.90;;;;;;8362490;28;19970;-64
2021/06/10 11:31:13;;;;;;;;;;;29.00;99.90;;;;;;8362606;28;20377;-64
2021/06/10 11:35:25;;;;;;;;;;;28.40;98.20;;;;;;8340906;28;19916;-65
2021/06/10 11:39:30;;;;;;;;;;;30.30;95.40;;;;;;8353560;28;20593;-64
2021/06/10 11:43:32;;;;;;;;;;;33.10;85.40;;;;;;8362185;28;20359;-65
2021/06/10 11:47:35;;;;;;;;;;;35.20;73.30;;;;;;8353543;28;19920;-64
2021/06/10 11:51:38;;;;;;;;;;;36.40;55.20;;;;;;8339999;28;19924;-65
2021/06/10 11:55:39;;;;;;;;;;;36.40;49.80;;;;;;8343581;28;19915;-65
2021/06/10 11:59:39;;;;;;;;;;;34.80;51.50;;;;;;8345465;28;19905;-65
2021/06/10 12:03:40;;;;;;;;;;;33.10;59.30;;;;;;8321699;28;20329;-65
2021/06/10 12:07:41;;;;;;;;;;;31.50;59.80;;;;;;8361746;28;19962;-65
2021/06/10 12:11:48;;;;;;;;;;;30.70;65.70;;;;;;8362881;28;19909;-65
2021/06/10 12:15:50;;;;;;;;;;;30.80;71.90;;;;;;8361605;28;20294;-65
2021/06/10 12:20:09;;;;;;;;;;;30.50;75.50;;;;;;8360118;28;20359;-66
2021/06/10 12:24:10;;;;;;;;;;;30.90;75.00;;;;;;8361339;28;20414;-65
2021/06/10 12:28:24;;;;;;;;;;;31.50;72.10;;;;;;8360897;28;19913;-65
2021/06/10 12:32:25;;;;;;;;;;;31.40;69.20;;;;;;8343811;28;19909;-65
2021/06/10 12:36:25;;;;;;;;;;;31.70;70.00;;;;;;8360487;28;20000;-66
2021/06/10 12:40:33;;;;;;;;;;;33.50;64.10;;;;;;8360605;28;19975;-65
2021/06/10 12:44:35;;;;;;;;;;;35.30;56.50;;;;;;8357940;28;19956;-66
2021/06/10 12:48:35;;;;;;;;;;;37.00;56.30;;;;;;8358171;28;19963;-65
2021/06/10 12:52:37;;;;;;;;;;;35.70;53.30;;;;;;8340622;28;19917;-66
2021/06/10 12:56:47;;;;;;;;;;;34.80;53.80;;;;;;8349964;28;19914;-65
2021/06/10 13:00:48;;;;;;;;;;;33.20;57.20;;;;;;8353854;28;19919;-65
2021/06/10 13:04:50;;;;;;;;;;;32.10;56.30;;;;;;8356897;28;19960;-65
2021/06/10 13:08:50;;;;;;;;;;;31.50;65.70;;;;;;8338452;28;19956;-65
2021/06/10 13:12:51;;;;;;;;;;;34.40;60.20;;;;;;8329402;28;20371;-65
2021/06/10 13:16:52;;;;;;;;;;;38.10;50.30;;;;;;8357831;28;19913;-65
2021/06/10 13:20:57;;;;;;;;;;;35.70;52.70;;;;;;8358439;28;19921;-65
2021/06/10 13:25:05;;;;;;;;;;;34.50;54.50;;;;;;8359010;28;19920;-65
2021/06/10 13:29:08;;;;;;;;;;;34.90;55.60;;;;;;8359349;28;19931;-65
2021/06/10 13:33:08;;;;;;;;;;;35.60;50.40;;;;;;8358948;28;19935;-66
2021/06/10 13:37:09;;;;;;;;;;;36.20;49.50;;;;;;8358177;28;19913;-65
2021/06/10 13:41:12;;;;;;;;;;;39.20;47.30;;;;;;8351703;28;20007;-66
2021/06/10 13:45:13;;;;;;;;;;;42.10;44.30;;;;;;8357222;28;20378;-65
2021/06/10 13:49:13;;;;;;;;;;;43.20;37.10;;;;;;8352841;28;19925;-66
2021/06/10 13:53:14;;;;;;;;;;;39.50;42.10;;;;;;8357372;28;19917;-65
2021/06/10 13:57:14;;;;;;;;;;;35.10;47.90;;;;;;8356781;28;19913;-65
2021/06/10 14:01:15;;;;;;;;;;;32.30;57.00;;;;;;8358203;28;19912;-65
2021/06/10 14:05:16;;;;;;;;;;;32.10;56.20;;;;;;8357185;28;19917;-66
2021/06/10 14:09:16;;;;;;;;;;;31.90;54.50;;;;;;8333728;28;20386;-65
2021/06/10 14:13:18;;;;;;;;;;;30.70;58.80;;;;;;8358060;28;19912;-66
2021/06/10 14:17:18;;;;;;;;;;;32.30;58.10;;;;;;8357545;28;20434;-66
2021/06/10 14:21:23;;;;;;;;;;;37.00;51.90;;;;;;8357061;28;19913;-66
2021/06/10 14:25:23;;;;;;;;;;;39.80;47.60;;;;;;8355584;28;19990;-66
2021/06/10 14:29:29;;;;;;;;;;;41.00;44.40;;;;;;8351206;28;19956;-66
2021/06/10 14:33:30;;;;;;;;;;;39.60;45.80;;;;;;8349830;28;19913;-66
2021/06/10 14:37:31;;;;;;;;;;;39.90;43.80;;;;;;8339775;28;20309;-65
2021/06/10 14:41:32;;;;;;;;;;;38.40;47.20;;;;;;8356814;28;19913;-66
2021/06/10 14:45:33;;;;;;;;;;;37.80;50.00;;;;;;8357197;28;19917;-66
2021/06/10 14:49:33;;;;;;;;;;;38.50;47.80;;;;;;8357228;28;19920;-65
2021/06/10 14:53:34;;;;;;;;;;;37.30;45.80;;;;;;8338005;28;19987;-68
2021/06/10 14:57:35;;;;;;;;;;;35.10;50.00;;;;;;8353979;28;20004;-68
2021/06/10 15:01:35;;;;;;;;;;;33.70;54.70;;;;;;8326828;28;19913;-66
2021/06/10 15:05:36;;;;;;;;;;;32.30;57.50;;;;;;8356229;28;20390;-65
2021/06/10 15:09:36;;;;;;;;;;;31.80;56.30;;;;;;8356911;28;19917;-66
2021/06/10 15:13:36;;;;;;;;;;;34.30;55.50;;;;;;8352750;28;20374;-65
2021/06/10 15:17:37;;;;;;;;;;;36.30;51.30;;;;;;8355963;28;19913;-66
2021/06/10 15:21:39;;;;;;;;;;;35.00;51.10;;;;;;8334633;28;19914;-65
2021/06/10 15:25:39;;;;;;;;;;;33.60;53.80;;;;;;8326298;28;19917;-65
2021/06/10 15:29:40;;;;;;;;;;;32.40;57.60;;;;;;8344632;28;19913;-65
2021/06/10 15:33:42;;;;;;;;;;;31.30;61.90;;;;;;8351322;28;20003;-63
2021/06/10 15:37:42;;;;;;;;;;;29.50;68.10;;;;;;8363127;28;19913;-64
2021/06/10 15:41:43;;;;;;;;;;;28.30;77.30;;;;;;8363490;28;19909;-64
2021/06/10 15:45:43;;;;;;;;;;;27.90;78.70;;;;;;8345066;28;19960;-65
2021/06/10 15:49:44;;;;;;;;;;;27.40;82.60;;;;;;8361449;28;19909;-65
2021/06/10 15:53:44;;;;;;;;;;;28.90;80.90;;;;;;8362210;28;20397;-64
2021/06/10 15:57:45;;;;;;;;;;;29.40;76.60;;;;;;8362898;28;19927;-64
2021/06/10 16:01:45;;;;;;;;;;;26.60;82.20;;;;;;8345348;28;19988;-64
2021/06/10 16:05:46;;;;;;;;;;;25.00;91.70;;;;;;8335132;28;20299;-64
2021/06/10 16:09:47;;;;;;;;;;;23.90;97.20;;;;;;8329235;28;19920;-63
2021/06/10 16:13:47;;;;;;;;;;;23.70;99.10;;;;;;8329705;28;19913;-63
2021/06/10 16:17:48;;;;;;;;;;;22.70;99.90;;;;;;8343449;28;19919;-63
2021/06/10 16:21:50;;;;;;;;;;;22.20;99.90;;;;;;8362310;28;19998;-63
2021/06/10 16:25:50;;;;;;;;;;;21.80;99.90;;;;;;8361658;28;19928;-64
2021/06/10 16:29:54;;;;;;;;;;;21.70;99.90;;;;;;8361460;28;19909;-65
2021/06/10 16:33:54;;;;;;;;;;;22.60;99.90;;;;;;8359035;28;19967;-64
2021/06/10 16:37:58;;;;;;;;;;;23.20;99.90;;;;;;8348536;28;20425;-64
2021/06/10 16:41:59;;;;;;;;;;;24.90;99.90;;;;;;8349360;28;20338;-64
2021/06/10 16:46:00;;;;;;;;;;;25.90;99.90;;;;;;8349397;28;19924;-64
2021/06/10 16:50:02;;;;;;;;;;;26.70;99.90;;;;;;8347969;28;19917;-65
2021/06/10 16:54:03;;;;;;;;;;;27.10;99.90;;;;;;8351322;28;19917;-65
2021/06/10 16:58:03;;;;;;;;;;;27.00;99.90;;;;;;8336068;28;19920;-65
2021/06/10 17:02:24;;;;;;;;;;;26.10;99.90;;;;;;8354852;28;19924;-65
2021/06/10 17:06:25;;;;;;;;;;;25.10;99.90;;;;;;8356070;28;19940;-65
2021/06/10 17:10:26;;;;;;;;;;;24.00;99.90;;;;;;8351859;28;19942;-65
2021/06/10 17:14:26;;;;;;;;;;;23.40;99.90;;;;;;8355348;28;19979;-65
2021/06/10 17:18:27;;;;;;;;;;;22.90;99.90;;;;;;8354457;28;20570;-65
2021/06/10 17:22:27;;;;;;;;;;;22.50;99.90;;;;;;8338252;28;19916;-64
2021/06/10 17:26:28;;;;;;;;;;;22.30;99.90;;;;;;8339654;28;20225;-66
2021/06/10 17:30:29;;;;;;;;;;;22.40;99.90;;;;;;8351133;28;19913;-65
2021/06/10 17:34:29;;;;;;;;;;;22.40;99.90;;;;;;8338205;28;20024;-64
2021/06/10 17:38:30;;;;;;;;;;;22.20;99.90;;;;;;8322764;28;20011;-64
2021/06/10 17:42:33;;;;;;;;;;;21.50;99.90;;;;;;8350920;28;19913;-63
2021/06/10 17:46:34;;;;;;;;;;;21.10;99.90;;;;;;8323542;28;20327;-64
2021/06/10 17:50:34;;;;;;;;;;;20.90;99.90;;;;;;8322499;28;19913;-64
2021/06/10 17:54:36;;;;;;;;;;;21.00;99.90;;;;;;8346973;28;19920;-65
2021/06/10 17:58:36;;;;;;;;;;;21.10;99.90;;;;;;8349338;28;19919;-65
2021/06/10 18:02:37;;;;;;;;;;;21.20;99.90;;;;;;8337401;28;20458;-65
2021/06/10 18:06:38;;;;;;;;;;;21.40;99.90;;;;;;8354305;28;19982;-65
2021/06/10 18:10:38;;;;;;;;;;;21.50;99.90;;;;;;8354981;28;19908;-64
2021/06/10 18:14:39;;;;;;;;;;;21.50;99.90;;;;;;8354742;28;20039;-65
2021/06/10 18:18:40;;;;;;;;;;;21.50;99.90;;;;;;8354678;28;19966;-65
2021/06/10 18:22:40;;;;;;;;;;;21.40;99.90;;;;;;8334154;28;19917;-65
2021/06/10 18:26:41;;;;;;;;;;;21.50;99.90;;;;;;8354462;28;19963;-65
2021/06/10 18:30:41;;;;;;;;;;;21.50;99.90;;;;;;8333080;28;19989;-66
2021/06/10 18:34:42;;;;;;;;;;;21.40;99.90;;;;;;8320566;28;20016;-65
2021/06/10 18:38:42;;;;;;;;;;;21.20;99.90;;;;;;8331442;28;20345;-65
2021/06/10 18:42:43;;;;;;;;;;;20.80;99.90;;;;;;8353519;28;19917;-65
2021/06/10 18:46:44;;;;;;;;;;;20.50;99.90;;;;;;8339756;28;20004;-65
2021/06/10 18:50:44;;;;;;;;;;;20.30;99.90;;;;;;8338870;28;19928;-66
2021/06/10 18:54:44;;;;;;;;;;;20.00;99.90;;;;;;8333235;28;19913;-65
2021/06/10 18:58:45;;;;;;;;;;;19.90;99.90;;;;;;8354408;28;19921;-63
2021/06/10 19:02:46;;;;;;;;;;;19.40;99.90;;;;;;8353759;28;19974;-63
2021/06/10 19:06:47;;;;;;;;;;;19.20;99.90;;;;;;8353322;28;19939;-64
2021/06/10 19:10:47;;;;;;;;;;;18.80;99.90;;;;;;8358824;28;19936;-64
2021/06/10 19:14:54;;;;;;;;;;;18.60;99.90;;;;;;8359063;28;20406;-61
2021/06/10 19:18:54;;;;;;;;;;;18.70;99.90;;;;;;8353176;28;20260;-65
2021/06/10 19:22:55;;;;;;;;;;;18.40;99.90;;;;;;8360402;28;19913;-64
2021/06/10 19:26:56;;;;;;;;;;;18.60;99.90;;;;;;8346674;28;19947;-64
2021/06/10 19:30:56;;;;;;;;;;;18.30;99.90;;;;;;8351174;28;20382;-64
2021/06/10 19:34:57;;;;;;;;;;;17.90;99.90;;;;;;8352157;28;19924;-64
2021/06/10 19:38:57;;;;;;;;;;;17.80;99.90;;;;;;8357821;28;19945;-64
2021/06/10 19:42:58;;;;;;;;;;;17.40;99.90;;;;;;8338455;28;19916;-64
2021/06/10 19:46:58;;;;;;;;;;;17.50;99.90;;;;;;8357665;28;19927;-65
2021/06/10 19:51:02;;;;;;;;;;;17.50;99.90;;;;;;8340823;28;19963;-64
2021/06/10 19:55:04;;;;;;;;;;;17.60;99.90;;;;;;8357647;28;20004;-65
2021/06/10 19:59:05;;;;;;;;;;;17.70;99.90;;;;;;8339860;28;19992;-65
2021/06/10 20:03:06;;;;;;;;;;;17.70;99.90;;;;;;8329639;28;19962;-60
2021/06/10 20:07:06;;;;;;;;;;;17.60;99.90;;;;;;8337784;28;19917;-58
2021/06/10 20:11:08;;;;;;;;;;;17.60;99.90;;;;;;8350467;28;20483;-59
2021/06/10 20:15:09;;;;;;;;;;;17.50;99.90;;;;;;8357978;28;20291;-59
2021/06/10 20:19:12;;;;;;;;;;;17.20;99.90;;;;;;8356718;28;19956;-58
2021/06/10 20:23:12;;;;;;;;;;;17.20;99.90;;;;;;8356208;28;19909;-58
2021/06/10 20:31:13;;;;;;;;;;;17.20;99.90;;;;;;8358604;28;19943;-57
2021/06/10 20:35:13;;;;;;;;;;;17.40;99.90;;;;;;8354952;28;19913;-58
2021/06/10 20:39:14;;;;;;;;;;;17.10;99.90;;;;;;8357455;28;19916;-59
2021/06/10 20:43:15;;;;;;;;;;;16.90;99.90;;;;;;8340038;28;19913;-59
2021/06/10 20:47:15;;;;;;;;;;;16.80;99.90;;;;;;8357349;28;19968;-57
2021/06/10 20:51:16;;;;;;;;;;;16.50;99.90;;;;;;8356686;28;19948;-60
2021/06/10 20:55:16;;;;;;;;;;;16.50;99.90;;;;;;8349279;28;19924;-59
2021/06/10 20:59:17;;;;;;;;;;;16.30;99.90;;;;;;8342277;28;19920;-59
2021/06/10 21:03:17;;;;;;;;;;;16.10;99.90;;;;;;8347685;22;19929;-65
2021/06/10 21:07:18;;;;;;;;;;;15.80;99.90;;;;;;8290380;28;20302;-65
2021/06/10 21:11:19;;;;;;;;;;;15.90;99.90;;;;;;8309294;28;19919;-65
2021/06/10 21:15:19;;;;;;;;;;;15.60;99.90;;;;;;8326039;28;19921;-65
2021/06/10 21:19:20;;;;;;;;;;;15.70;99.90;;;;;;8300623;28;19913;-66
2021/06/10 21:23:20;;;;;;;;;;;15.40;99.90;;;;;;8315526;28;19948;-65
2021/06/10 21:27:21;;;;;;;;;;;15.30;99.90;;;;;;8327149;28;19913;-65
2021/06/10 21:31:22;;;;;;;;;;;15.40;99.90;;;;;;8327164;28;19948;-65
2021/06/10 21:35:22;;;;;;;;;;;15.10;99.90;;;;;;8327267;28;19909;-65
2021/06/10 21:39:23;;;;;;;;;;;15.40;99.90;;;;;;8326875;28;19917;-65
2021/06/10 21:43:23;;;;;;;;;;;15.10;99.90;;;;;;8325471;28;20004;-65
2021/06/10 21:47:25;;;;;;;;;;;14.90;99.90;;;;;;8322802;28;19920;-66
2021/06/10 21:51:25;;;;;;;;;;;14.80;99.90;;;;;;8306860;28;19916;-65
2021/06/10 21:55:26;;;;;;;;;;;14.80;99.90;;;;;;8316075;28;20302;-65
2021/06/10 21:59:27;;;;;;;;;;;14.70;99.90;;;;;;8325279;28;19909;-65
2021/06/10 22:03:27;;;;;;;;;;;14.60;99.90;;;;;;8324992;28;19917;-66
2021/06/10 22:07:28;;;;;;;;;;;14.40;99.90;;;;;;8326231;28;20398;-66
2021/06/10 22:11:28;;;;;;;;;;;14.70;99.90;;;;;;8312721;28;19921;-66
2021/06/10 22:15:30;;;;;;;;;;;14.40;99.90;;;;;;8308433;28;19909;-65
2021/06/10 22:19:35;;;;;;;;;;;14.60;99.90;;;;;;8293905;28;19944;-65
2021/06/10 22:23:35;;;;;;;;;;;14.50;99.90;;;;;;8324877;28;19916;-66
2021/06/10 22:27:40;;;;;;;;;;;14.50;99.90;;;;;;8325874;28;19917;-65
2021/06/10 22:31:41;;;;;;;;;;;14.20;99.90;;;;;;8325939;28;19909;-65
2021/06/10 22:35:42;;;;;;;;;;;14.10;99.90;;;;;;8326123;28;19975;-65
2021/06/10 22:39:42;;;;;;;;;;;14.40;99.90;;;;;;8324574;28;20375;-65
2021/06/10 22:43:43;;;;;;;;;;;14.40;99.90;;;;;;8326093;28;19943;-65
2021/06/10 22:47:44;;;;;;;;;;;14.20;99.90;;;;;;8331789;28;19913;-65
2021/06/10 22:51:44;;;;;;;;;;;13.90;99.90;;;;;;8331491;28;20401;-65
2021/06/10 22:55:45;;;;;;;;;;;14.10;99.90;;;;;;8331929;28;19909;-65
2021/06/10 22:59:45;;;;;;;;;;;14.00;99.90;;;;;;8331645;28;20058;-65
2021/06/10 23:03:46;;;;;;;;;;;13.70;99.90;;;;;;8330873;28;20276;-65
2021/06/10 23:07:47;;;;;;;;;;;13.80;99.90;;;;;;8319636;28;19998;-65
2021/06/10 23:11:47;;;;;;;;;;;13.70;99.90;;;;;;8331427;28;19963;-65
2021/06/10 23:15:48;;;;;;;;;;;13.80;99.90;;;;;;8330950;28;19932;-65
2021/06/10 23:19:53;;;;;;;;;;;13.60;99.90;;;;;;8330970;28;19909;-66
2021/06/10 23:23:53;;;;;;;;;;;13.50;99.90;;;;;;8331156;28;19909;-65
2021/06/10 23:27:54;;;;;;;;;;;13.60;99.90;;;;;;8330541;28;19913;-65
2021/06/10 23:31:54;;;;;;;;;;;13.40;99.90;;;;;;8326685;28;19909;-65